sensor_id;sensor_type;location;lat;lon;timestamp;P1;durP1;ratioP1;P2;durP2;ratioP2
5762;SDS011;2906;53.282;9.508;2023-04-04T00:00:40;6.72;;;1.48;;
5762;SDS011;2906;53.282;9.508;2023-04-04T00:01:42;9.13;;;1.50;;
5762;SDS011;2906;53.282;9.508;2023-04-04T00:02:44;10.13;;;1.63;;
5762;SDS011;2906;53.282;9.508;2023-04-04T00:03:46;7.53;;;1.20;;
5762;SDS011;2906;53.282;9.508;2023-04-04T00:04:50;6.28;;;1.30;;
5762;SDS011;2906;53.282;9.508;2023-04-04T00:05:52;9.60;;;1.50;;
5762;SDS011;2906;53.282;9.508;2023-04-04T00:06:54;7.80;;;1.40;;
5762;SDS011;2906;53.282;9.508;2023-04-04T00:07:55;7.18;;;1.27;;
5762;SDS011;2906;53.282;9.508;2023-04-04T00:08:57;12.40;;;1.40;;
5762;SDS011;2906;53.282;9.508;2023-04-04T00:10:00;6.45;;;1.40;;
5762;SDS011;2906;53.282;9.508;2023-04-04T00:11:02;7.53;;;1.10;;
5762;SDS011;2906;53.282;9.508;2023-04-04T00:12:05;6.40;;;1.30;;
5762;SDS011;2906;53.282;9.508;2023-04-04T00:13:07;5.32;;;1.00;;
5762;SDS011;2906;53.282;9.508;2023-04-04T00:14:09;12.55;;;1.38;;
5762;SDS011;2906;53.282;9.508;2023-04-04T00:15:11;8.48;;;1.60;;
5762;SDS011;2906;53.282;9.508;2023-04-04T00:16:13;7.40;;;1.33;;
5762;SDS011;2906;53.282;9.508;2023-04-04T00:17:15;7.00;;;1.40;;
5762;SDS011;2906;53.282;9.508;2023-04-04T00:18:16;6.88;;;1.55;;
5762;SDS011;2906;53.282;9.508;2023-04-04T00:19:19;11.70;;;1.83;;
5762;SDS011;2906;53.282;9.508;2023-04-04T00:20:20;7.10;;;1.17;;
5762;SDS011;2906;53.282;9.508;2023-04-04T00:21:23;15.07;;;1.65;;
5762;SDS011;2906;53.282;9.508;2023-04-04T00:22:26;7.05;;;1.13;;
5762;SDS011;2906;53.282;9.508;2023-04-04T00:23:28;6.47;;;1.20;;
5762;SDS011;2906;53.282;9.508;2023-04-04T00:24:29;6.20;;;1.35;;
5762;SDS011;2906;53.282;9.508;2023-04-04T00:25:34;6.13;;;1.08;;
5762;SDS011;2906;53.282;9.508;2023-04-04T00:26:35;5.40;;;1.10;;
5762;SDS011;2906;53.282;9.508;2023-04-04T00:27:37;5.53;;;1.00;;
5762;SDS011;2906;53.282;9.508;2023-04-04T00:28:38;6.85;;;1.27;;
5762;SDS011;2906;53.282;9.508;2023-04-04T00:29:41;7.65;;;1.30;;
5762;SDS011;2906;53.282;9.508;2023-04-04T00:30:42;6.25;;;1.52;;
5762;SDS011;2906;53.282;9.508;2023-04-04T00:31:45;7.90;;;1.60;;
5762;SDS011;2906;53.282;9.508;2023-04-04T00:32:46;6.40;;;1.50;;
5762;SDS011;2906;53.282;9.508;2023-04-04T00:33:48;8.15;;;1.42;;
5762;SDS011;2906;53.282;9.508;2023-04-04T00:34:50;7.85;;;1.17;;
5762;SDS011;2906;53.282;9.508;2023-04-04T00:35:53;9.63;;;1.75;;
5762;SDS011;2906;53.282;9.508;2023-04-04T00:36:54;7.50;;;1.40;;
5762;SDS011;2906;53.282;9.508;2023-04-04T00:37:56;14.70;;;1.67;;
5762;SDS011;2906;53.282;9.508;2023-04-04T00:38:58;6.70;;;1.35;;
5762;SDS011;2906;53.282;9.508;2023-04-04T00:40:00;6.60;;;1.25;;
5762;SDS011;2906;53.282;9.508;2023-04-04T00:41:05;6.25;;;1.35;;
5762;SDS011;2906;53.282;9.508;2023-04-04T00:42:07;9.27;;;1.48;;
5762;SDS011;2906;53.282;9.508;2023-04-04T00:43:09;8.10;;;1.30;;
5762;SDS011;2906;53.282;9.508;2023-04-04T00:44:11;5.68;;;1.42;;
5762;SDS011;2906;53.282;9.508;2023-04-04T00:45:12;9.30;;;1.50;;
5762;SDS011;2906;53.282;9.508;2023-04-04T00:46:15;8.57;;;1.15;;
5762;SDS011;2906;53.282;9.508;2023-04-04T00:47:18;13.48;;;1.60;;
5762;SDS011;2906;53.282;9.508;2023-04-04T00:48:20;8.43;;;1.30;;
5762;SDS011;2906;53.282;9.508;2023-04-04T00:49:23;7.25;;;1.38;;
5762;SDS011;2906;53.282;9.508;2023-04-04T00:50:26;6.45;;;1.52;;
5762;SDS011;2906;53.282;9.508;2023-04-04T00:51:27;6.85;;;1.33;;
5762;SDS011;2906;53.282;9.508;2023-04-04T00:52:29;9.93;;;1.52;;
5762;SDS011;2906;53.282;9.508;2023-04-04T00:53:30;8.32;;;1.65;;
5762;SDS011;2906;53.282;9.508;2023-04-04T00:54:33;9.15;;;1.75;;
5762;SDS011;2906;53.282;9.508;2023-04-04T00:55:35;8.82;;;1.70;;
5762;SDS011;2906;53.282;9.508;2023-04-04T00:56:39;6.13;;;1.48;;
5762;SDS011;2906;53.282;9.508;2023-04-04T00:57:41;12.88;;;1.75;;
5762;SDS011;2906;53.282;9.508;2023-04-04T00:58:44;8.15;;;1.50;;
5762;SDS011;2906;53.282;9.508;2023-04-04T00:59:46;6.95;;;1.30;;
5762;SDS011;2906;53.282;9.508;2023-04-04T01:00:48;6.53;;;1.52;;
5762;SDS011;2906;53.282;9.508;2023-04-04T01:01:49;12.07;;;1.80;;
5762;SDS011;2906;53.282;9.508;2023-04-04T01:02:52;5.35;;;1.35;;
5762;SDS011;2906;53.282;9.508;2023-04-04T01:03:53;6.65;;;1.38;;
5762;SDS011;2906;53.282;9.508;2023-04-04T01:04:56;12.10;;;1.60;;
5762;SDS011;2906;53.282;9.508;2023-04-04T01:05:57;5.78;;;1.00;;
5762;SDS011;2906;53.282;9.508;2023-04-04T01:07:00;5.25;;;1.13;;
5762;SDS011;2906;53.282;9.508;2023-04-04T01:08:02;6.50;;;1.58;;
5762;SDS011;2906;53.282;9.508;2023-04-04T01:09:04;6.07;;;1.38;;
5762;SDS011;2906;53.282;9.508;2023-04-04T01:10:06;9.40;;;1.50;;
5762;SDS011;2906;53.282;9.508;2023-04-04T01:11:09;8.90;;;1.48;;
5762;SDS011;2906;53.282;9.508;2023-04-04T01:12:12;7.55;;;1.40;;
5762;SDS011;2906;53.282;9.508;2023-04-04T01:13:14;12.80;;;1.52;;
5762;SDS011;2906;53.282;9.508;2023-04-04T01:14:16;5.35;;;1.40;;
5762;SDS011;2906;53.282;9.508;2023-04-04T01:15:18;7.28;;;1.50;;
5762;SDS011;2906;53.282;9.508;2023-04-04T01:16:19;8.23;;;1.30;;
5762;SDS011;2906;53.282;9.508;2023-04-04T01:17:23;5.93;;;1.20;;
5762;SDS011;2906;53.282;9.508;2023-04-04T01:18:24;7.32;;;1.40;;
5762;SDS011;2906;53.282;9.508;2023-04-04T01:19:29;5.22;;;0.90;;
5762;SDS011;2906;53.282;9.508;2023-04-04T01:20:31;9.68;;;1.33;;
5762;SDS011;2906;53.282;9.508;2023-04-04T01:21:35;4.78;;;0.90;;
5762;SDS011;2906;53.282;9.508;2023-04-04T01:22:36;9.45;;;1.67;;
5762;SDS011;2906;53.282;9.508;2023-04-04T01:23:43;8.23;;;2.20;;
5762;SDS011;2906;53.282;9.508;2023-04-04T01:24:46;5.70;;;1.15;;
5762;SDS011;2906;53.282;9.508;2023-04-04T01:25:59;7.75;;;1.60;;
5762;SDS011;2906;53.282;9.508;2023-04-04T01:27:01;7.95;;;1.70;;
5762;SDS011;2906;53.282;9.508;2023-04-04T01:28:03;8.63;;;1.48;;
5762;SDS011;2906;53.282;9.508;2023-04-04T01:29:05;7.47;;;1.48;;
5762;SDS011;2906;53.282;9.508;2023-04-04T01:30:07;8.82;;;1.33;;
5762;SDS011;2906;53.282;9.508;2023-04-04T01:31:09;7.43;;;1.40;;
5762;SDS011;2906;53.282;9.508;2023-04-04T01:32:15;6.63;;;1.42;;
5762;SDS011;2906;53.282;9.508;2023-04-04T01:33:18;8.35;;;1.13;;
5762;SDS011;2906;53.282;9.508;2023-04-04T01:34:23;6.28;;;1.40;;
5762;SDS011;2906;53.282;9.508;2023-04-04T01:35:30;6.72;;;1.20;;
5762;SDS011;2906;53.282;9.508;2023-04-04T01:36:34;7.18;;;1.38;;
5762;SDS011;2906;53.282;9.508;2023-04-04T01:37:43;6.78;;;1.10;;
5762;SDS011;2906;53.282;9.508;2023-04-04T01:38:48;9.32;;;1.95;;
5762;SDS011;2906;53.282;9.508;2023-04-04T01:39:53;6.85;;;1.35;;
5762;SDS011;2906;53.282;9.508;2023-04-04T01:41:06;14.35;;;1.60;;
5762;SDS011;2906;53.282;9.508;2023-04-04T01:42:09;9.70;;;1.20;;
5762;SDS011;2906;53.282;9.508;2023-04-04T01:43:12;7.63;;;1.60;;
5762;SDS011;2906;53.282;9.508;2023-04-04T01:44:14;6.60;;;1.48;;
5762;SDS011;2906;53.282;9.508;2023-04-04T01:45:18;6.40;;;1.35;;
5762;SDS011;2906;53.282;9.508;2023-04-04T01:46:22;9.18;;;1.50;;
5762;SDS011;2906;53.282;9.508;2023-04-04T01:47:24;8.18;;;1.98;;
5762;SDS011;2906;53.282;9.508;2023-04-04T01:48:25;7.80;;;2.22;;
5762;SDS011;2906;53.282;9.508;2023-04-04T01:49:28;10.68;;;1.70;;
5762;SDS011;2906;53.282;9.508;2023-04-04T01:50:29;7.88;;;1.50;;
5762;SDS011;2906;53.282;9.508;2023-04-04T01:51:31;13.30;;;1.52;;
5762;SDS011;2906;53.282;9.508;2023-04-04T01:52:33;7.18;;;1.65;;
5762;SDS011;2906;53.282;9.508;2023-04-04T01:53:35;9.40;;;2.58;;
5762;SDS011;2906;53.282;9.508;2023-04-04T01:54:37;8.88;;;1.58;;
5762;SDS011;2906;53.282;9.508;2023-04-04T01:55:39;10.38;;;1.52;;
5762;SDS011;2906;53.282;9.508;2023-04-04T01:56:41;5.70;;;1.35;;
5762;SDS011;2906;53.282;9.508;2023-04-04T01:57:45;7.07;;;1.60;;
5762;SDS011;2906;53.282;9.508;2023-04-04T01:58:47;6.80;;;1.48;;
5762;SDS011;2906;53.282;9.508;2023-04-04T01:59:49;8.93;;;1.67;;
5762;SDS011;2906;53.282;9.508;2023-04-04T02:00:50;8.30;;;1.17;;
5762;SDS011;2906;53.282;9.508;2023-04-04T02:01:52;6.38;;;1.42;;
5762;SDS011;2906;53.282;9.508;2023-04-04T02:02:53;7.47;;;1.20;;
5762;SDS011;2906;53.282;9.508;2023-04-04T02:03:56;8.98;;;1.90;;
5762;SDS011;2906;53.282;9.508;2023-04-04T02:04:57;6.63;;;1.33;;
5762;SDS011;2906;53.282;9.508;2023-04-04T02:06:00;8.18;;;1.80;;
5762;SDS011;2906;53.282;9.508;2023-04-04T02:07:02;9.88;;;1.55;;
5762;SDS011;2906;53.282;9.508;2023-04-04T02:08:04;14.65;;;2.10;;
5762;SDS011;2906;53.282;9.508;2023-04-04T02:09:05;6.00;;;1.23;;
5762;SDS011;2906;53.282;9.508;2023-04-04T02:10:08;9.40;;;1.67;;
5762;SDS011;2906;53.282;9.508;2023-04-04T02:11:09;10.88;;;1.92;;
5762;SDS011;2906;53.282;9.508;2023-04-04T02:12:11;7.07;;;1.50;;
5762;SDS011;2906;53.282;9.508;2023-04-04T02:13:14;5.63;;;1.10;;
5762;SDS011;2906;53.282;9.508;2023-04-04T02:14:17;8.23;;;1.55;;
5762;SDS011;2906;53.282;9.508;2023-04-04T02:15:19;6.22;;;1.55;;
5762;SDS011;2906;53.282;9.508;2023-04-04T02:16:21;6.47;;;1.38;;
5762;SDS011;2906;53.282;9.508;2023-04-04T02:17:22;7.18;;;1.40;;
5762;SDS011;2906;53.282;9.508;2023-04-04T02:18:27;6.30;;;1.60;;
5762;SDS011;2906;53.282;9.508;2023-04-04T02:19:28;8.75;;;1.52;;
5762;SDS011;2906;53.282;9.508;2023-04-04T02:20:31;11.32;;;1.50;;
5762;SDS011;2906;53.282;9.508;2023-04-04T02:21:32;7.13;;;1.45;;
5762;SDS011;2906;53.282;9.508;2023-04-04T02:22:35;8.15;;;1.38;;
5762;SDS011;2906;53.282;9.508;2023-04-04T02:23:36;9.57;;;1.88;;
5762;SDS011;2906;53.282;9.508;2023-04-04T02:24:38;8.68;;;1.30;;
5762;SDS011;2906;53.282;9.508;2023-04-04T02:25:40;8.52;;;1.85;;
5762;SDS011;2906;53.282;9.508;2023-04-04T02:26:42;10.00;;;1.60;;
5762;SDS011;2906;53.282;9.508;2023-04-04T02:27:43;7.15;;;1.20;;
5762;SDS011;2906;53.282;9.508;2023-04-04T02:28:47;6.78;;;1.75;;
5762;SDS011;2906;53.282;9.508;2023-04-04T02:29:48;10.00;;;2.38;;
5762;SDS011;2906;53.282;9.508;2023-04-04T02:30:50;12.55;;;1.60;;
5762;SDS011;2906;53.282;9.508;2023-04-04T02:31:52;8.65;;;1.20;;
5762;SDS011;2906;53.282;9.508;2023-04-04T02:32:56;8.18;;;1.50;;
5762;SDS011;2906;53.282;9.508;2023-04-04T02:33:58;8.88;;;1.50;;
5762;SDS011;2906;53.282;9.508;2023-04-04T02:35:00;7.07;;;1.30;;
5762;SDS011;2906;53.282;9.508;2023-04-04T02:36:02;8.93;;;1.65;;
5762;SDS011;2906;53.282;9.508;2023-04-04T02:37:05;7.30;;;1.70;;
5762;SDS011;2906;53.282;9.508;2023-04-04T02:38:06;9.10;;;1.85;;
5762;SDS011;2906;53.282;9.508;2023-04-04T02:39:08;9.75;;;1.83;;
5762;SDS011;2906;53.282;9.508;2023-04-04T02:40:09;11.30;;;2.13;;
5762;SDS011;2906;53.282;9.508;2023-04-04T02:41:12;9.15;;;2.08;;
5762;SDS011;2906;53.282;9.508;2023-04-04T02:42:13;16.27;;;2.58;;
5762;SDS011;2906;53.282;9.508;2023-04-04T02:43:15;7.82;;;1.70;;
5762;SDS011;2906;53.282;9.508;2023-04-04T02:44:18;9.52;;;1.80;;
5762;SDS011;2906;53.282;9.508;2023-04-04T02:45:21;9.57;;;2.75;;
5762;SDS011;2906;53.282;9.508;2023-04-04T02:46:22;8.30;;;1.83;;
5762;SDS011;2906;53.282;9.508;2023-04-04T02:47:24;9.32;;;2.22;;
5762;SDS011;2906;53.282;9.508;2023-04-04T02:48:26;10.73;;;2.55;;
5762;SDS011;2906;53.282;9.508;2023-04-04T02:49:28;11.23;;;3.03;;
5762;SDS011;2906;53.282;9.508;2023-04-04T02:50:29;8.45;;;2.50;;
5762;SDS011;2906;53.282;9.508;2023-04-04T02:51:32;8.13;;;2.38;;
5762;SDS011;2906;53.282;9.508;2023-04-04T02:52:33;11.15;;;3.95;;
5762;SDS011;2906;53.282;9.508;2023-04-04T02:53:35;11.27;;;3.20;;
5762;SDS011;2906;53.282;9.508;2023-04-04T02:54:37;12.88;;;4.00;;
5762;SDS011;2906;53.282;9.508;2023-04-04T02:55:39;13.27;;;3.00;;
5762;SDS011;2906;53.282;9.508;2023-04-04T02:56:41;10.43;;;2.83;;
5762;SDS011;2906;53.282;9.508;2023-04-04T02:57:49;10.10;;;3.00;;
5762;SDS011;2906;53.282;9.508;2023-04-04T02:58:50;9.02;;;2.53;;
5762;SDS011;2906;53.282;9.508;2023-04-04T02:59:54;10.55;;;3.00;;
5762;SDS011;2906;53.282;9.508;2023-04-04T03:00:55;12.70;;;2.40;;
5762;SDS011;2906;53.282;9.508;2023-04-04T03:01:58;9.57;;;2.30;;
5762;SDS011;2906;53.282;9.508;2023-04-04T03:02:59;8.93;;;2.30;;
5762;SDS011;2906;53.282;9.508;2023-04-04T03:04:01;6.57;;;1.90;;
5762;SDS011;2906;53.282;9.508;2023-04-04T03:05:03;13.20;;;2.08;;
5762;SDS011;2906;53.282;9.508;2023-04-04T03:06:06;7.88;;;2.10;;
5762;SDS011;2906;53.282;9.508;2023-04-04T03:07:07;16.35;;;2.75;;
5762;SDS011;2906;53.282;9.508;2023-04-04T03:08:10;10.25;;;2.28;;
5762;SDS011;2906;53.282;9.508;2023-04-04T03:09:11;10.40;;;2.22;;
5762;SDS011;2906;53.282;9.508;2023-04-04T03:10:13;7.78;;;1.77;;
5762;SDS011;2906;53.282;9.508;2023-04-04T03:11:16;8.25;;;2.20;;
5762;SDS011;2906;53.282;9.508;2023-04-04T03:12:20;8.00;;;2.40;;
5762;SDS011;2906;53.282;9.508;2023-04-04T03:13:21;10.00;;;1.92;;
5762;SDS011;2906;53.282;9.508;2023-04-04T03:14:23;7.22;;;2.10;;
5762;SDS011;2906;53.282;9.508;2023-04-04T03:15:27;10.25;;;2.15;;
5762;SDS011;2906;53.282;9.508;2023-04-04T03:16:29;8.15;;;1.85;;
5762;SDS011;2906;53.282;9.508;2023-04-04T03:17:31;8.43;;;1.63;;
5762;SDS011;2906;53.282;9.508;2023-04-04T03:18:33;12.52;;;2.30;;
5762;SDS011;2906;53.282;9.508;2023-04-04T03:19:35;8.00;;;1.70;;
5762;SDS011;2906;53.282;9.508;2023-04-04T03:20:37;9.38;;;1.90;;
5762;SDS011;2906;53.282;9.508;2023-04-04T03:21:38;9.73;;;2.20;;
5762;SDS011;2906;53.282;9.508;2023-04-04T03:22:40;9.52;;;2.28;;
5762;SDS011;2906;53.282;9.508;2023-04-04T03:23:42;8.55;;;2.15;;
5762;SDS011;2906;53.282;9.508;2023-04-04T03:24:44;7.50;;;1.90;;
5762;SDS011;2906;53.282;9.508;2023-04-04T03:25:45;10.23;;;1.95;;
5762;SDS011;2906;53.282;9.508;2023-04-04T03:26:48;8.88;;;2.40;;
5762;SDS011;2906;53.282;9.508;2023-04-04T03:27:50;6.80;;;1.70;;
5762;SDS011;2906;53.282;9.508;2023-04-04T03:28:52;9.43;;;2.13;;
5762;SDS011;2906;53.282;9.508;2023-04-04T03:29:53;7.47;;;1.85;;
5762;SDS011;2906;53.282;9.508;2023-04-04T03:30:57;10.48;;;2.28;;
5762;SDS011;2906;53.282;9.508;2023-04-04T03:32:03;6.60;;;1.50;;
5762;SDS011;2906;53.282;9.508;2023-04-04T03:33:05;11.05;;;2.00;;
5762;SDS011;2906;53.282;9.508;2023-04-04T03:34:07;7.95;;;1.88;;
5762;SDS011;2906;53.282;9.508;2023-04-04T03:35:10;7.65;;;2.05;;
5762;SDS011;2906;53.282;9.508;2023-04-04T03:36:12;10.15;;;2.00;;
5762;SDS011;2906;53.282;9.508;2023-04-04T03:37:14;9.93;;;2.10;;
5762;SDS011;2906;53.282;9.508;2023-04-04T03:38:15;8.40;;;2.17;;
5762;SDS011;2906;53.282;9.508;2023-04-04T03:39:18;9.23;;;2.30;;
5762;SDS011;2906;53.282;9.508;2023-04-04T03:40:19;8.40;;;2.20;;
5762;SDS011;2906;53.282;9.508;2023-04-04T03:41:21;7.82;;;2.30;;
5762;SDS011;2906;53.282;9.508;2023-04-04T03:42:23;11.23;;;2.25;;
5762;SDS011;2906;53.282;9.508;2023-04-04T03:43:25;9.63;;;2.63;;
5762;SDS011;2906;53.282;9.508;2023-04-04T03:44:27;10.25;;;2.40;;
5762;SDS011;2906;53.282;9.508;2023-04-04T03:45:31;10.60;;;2.10;;
5762;SDS011;2906;53.282;9.508;2023-04-04T03:46:34;9.35;;;2.40;;
5762;SDS011;2906;53.282;9.508;2023-04-04T03:47:37;11.70;;;2.55;;
5762;SDS011;2906;53.282;9.508;2023-04-04T03:48:38;7.45;;;2.40;;
5762;SDS011;2906;53.282;9.508;2023-04-04T03:49:40;8.30;;;2.10;;
5762;SDS011;2906;53.282;9.508;2023-04-04T03:50:42;8.20;;;2.17;;
5762;SDS011;2906;53.282;9.508;2023-04-04T03:51:44;8.50;;;2.50;;
5762;SDS011;2906;53.282;9.508;2023-04-04T03:52:45;8.60;;;2.25;;
5762;SDS011;2906;53.282;9.508;2023-04-04T03:53:47;8.15;;;2.30;;
5762;SDS011;2906;53.282;9.508;2023-04-04T03:54:49;9.02;;;1.88;;
5762;SDS011;2906;53.282;9.508;2023-04-04T03:55:51;7.10;;;2.05;;
5762;SDS011;2906;53.282;9.508;2023-04-04T03:56:53;10.57;;;2.20;;
5762;SDS011;2906;53.282;9.508;2023-04-04T03:57:56;14.60;;;2.80;;
5762;SDS011;2906;53.282;9.508;2023-04-04T03:58:58;8.60;;;2.83;;
5762;SDS011;2906;53.282;9.508;2023-04-04T04:00:00;16.48;;;3.72;;
5762;SDS011;2906;53.282;9.508;2023-04-04T04:01:01;14.52;;;3.88;;
5762;SDS011;2906;53.282;9.508;2023-04-04T04:02:05;16.20;;;3.67;;
5762;SDS011;2906;53.282;9.508;2023-04-04T04:03:06;17.58;;;3.80;;
5762;SDS011;2906;53.282;9.508;2023-04-04T04:04:08;15.57;;;3.67;;
5762;SDS011;2906;53.282;9.508;2023-04-04T04:05:10;14.55;;;3.90;;
5762;SDS011;2906;53.282;9.508;2023-04-04T04:06:12;12.98;;;3.47;;
5762;SDS011;2906;53.282;9.508;2023-04-04T04:07:13;10.82;;;3.33;;
5762;SDS011;2906;53.282;9.508;2023-04-04T04:08:15;11.32;;;4.05;;
5762;SDS011;2906;53.282;9.508;2023-04-04T04:09:16;13.57;;;3.15;;
5762;SDS011;2906;53.282;9.508;2023-04-04T04:10:19;13.27;;;3.55;;
5762;SDS011;2906;53.282;9.508;2023-04-04T04:11:20;11.35;;;3.17;;
5762;SDS011;2906;53.282;9.508;2023-04-04T04:12:22;12.70;;;3.70;;
5762;SDS011;2906;53.282;9.508;2023-04-04T04:13:25;11.98;;;3.53;;
5762;SDS011;2906;53.282;9.508;2023-04-04T04:14:28;13.20;;;3.80;;
5762;SDS011;2906;53.282;9.508;2023-04-04T04:15:29;15.05;;;3.83;;
5762;SDS011;2906;53.282;9.508;2023-04-04T04:16:31;13.27;;;3.70;;
5762;SDS011;2906;53.282;9.508;2023-04-04T04:17:34;11.32;;;3.25;;
5762;SDS011;2906;53.282;9.508;2023-04-04T04:18:39;15.70;;;3.78;;
5762;SDS011;2906;53.282;9.508;2023-04-04T04:19:41;13.68;;;4.20;;
5762;SDS011;2906;53.282;9.508;2023-04-04T04:20:43;10.77;;;3.90;;
5762;SDS011;2906;53.282;9.508;2023-04-04T04:21:44;12.25;;;3.42;;
5762;SDS011;2906;53.282;9.508;2023-04-04T04:22:47;20.13;;;3.50;;
5762;SDS011;2906;53.282;9.508;2023-04-04T04:23:48;14.38;;;3.55;;
5762;SDS011;2906;53.282;9.508;2023-04-04T04:24:50;12.38;;;2.80;;
5762;SDS011;2906;53.282;9.508;2023-04-04T04:25:52;11.88;;;2.70;;
5762;SDS011;2906;53.282;9.508;2023-04-04T04:26:54;8.88;;;2.55;;
5762;SDS011;2906;53.282;9.508;2023-04-04T04:27:55;11.45;;;3.05;;
5762;SDS011;2906;53.282;9.508;2023-04-04T04:28:57;11.93;;;3.00;;
5762;SDS011;2906;53.282;9.508;2023-04-04T04:29:58;14.93;;;2.90;;
5762;SDS011;2906;53.282;9.508;2023-04-04T04:31:04;13.07;;;2.63;;
5762;SDS011;2906;53.282;9.508;2023-04-04T04:32:06;13.05;;;2.47;;
5762;SDS011;2906;53.282;9.508;2023-04-04T04:33:11;9.00;;;2.55;;
5762;SDS011;2906;53.282;9.508;2023-04-04T04:34:12;11.25;;;2.45;;
5762;SDS011;2906;53.282;9.508;2023-04-04T04:35:14;10.43;;;2.50;;
5762;SDS011;2906;53.282;9.508;2023-04-04T04:36:16;9.95;;;2.20;;
5762;SDS011;2906;53.282;9.508;2023-04-04T04:37:18;9.90;;;2.47;;
5762;SDS011;2906;53.282;9.508;2023-04-04T04:38:19;9.98;;;2.10;;
5762;SDS011;2906;53.282;9.508;2023-04-04T04:39:22;9.13;;;2.05;;
5762;SDS011;2906;53.282;9.508;2023-04-04T04:40:24;18.45;;;2.30;;
5762;SDS011;2906;53.282;9.508;2023-04-04T04:41:26;7.78;;;2.35;;
5762;SDS011;2906;53.282;9.508;2023-04-04T04:42:28;9.43;;;2.17;;
5762;SDS011;2906;53.282;9.508;2023-04-04T04:43:30;10.38;;;1.90;;
5762;SDS011;2906;53.282;9.508;2023-04-04T04:44:31;9.25;;;1.90;;
5762;SDS011;2906;53.282;9.508;2023-04-04T04:45:34;10.77;;;2.13;;
5762;SDS011;2906;53.282;9.508;2023-04-04T04:46:35;12.68;;;2.15;;
5762;SDS011;2906;53.282;9.508;2023-04-04T04:47:38;10.68;;;2.28;;
5762;SDS011;2906;53.282;9.508;2023-04-04T04:48:40;9.50;;;2.10;;
5762;SDS011;2906;53.282;9.508;2023-04-04T04:49:42;12.43;;;2.05;;
5762;SDS011;2906;53.282;9.508;2023-04-04T04:50:47;11.05;;;2.60;;
5762;SDS011;2906;53.282;9.508;2023-04-04T04:51:49;8.40;;;2.05;;
5762;SDS011;2906;53.282;9.508;2023-04-04T04:52:50;8.88;;;2.50;;
5762;SDS011;2906;53.282;9.508;2023-04-04T04:53:52;8.00;;;1.60;;
5762;SDS011;2906;53.282;9.508;2023-04-04T04:54:54;7.82;;;2.15;;
5762;SDS011;2906;53.282;9.508;2023-04-04T04:55:56;10.05;;;2.20;;
5762;SDS011;2906;53.282;9.508;2023-04-04T04:56:57;8.48;;;2.47;;
5762;SDS011;2906;53.282;9.508;2023-04-04T04:58:00;12.65;;;2.05;;
5762;SDS011;2906;53.282;9.508;2023-04-04T04:59:03;9.73;;;2.17;;
5762;SDS011;2906;53.282;9.508;2023-04-04T05:00:08;8.43;;;2.13;;
5762;SDS011;2906;53.282;9.508;2023-04-04T05:01:09;9.40;;;2.28;;
5762;SDS011;2906;53.282;9.508;2023-04-04T05:02:12;11.57;;;2.40;;
5762;SDS011;2906;53.282;9.508;2023-04-04T05:03:13;7.88;;;1.70;;
5762;SDS011;2906;53.282;9.508;2023-04-04T05:04:17;10.80;;;2.35;;
5762;SDS011;2906;53.282;9.508;2023-04-04T05:05:18;6.85;;;1.77;;
5762;SDS011;2906;53.282;9.508;2023-04-04T05:06:20;9.95;;;2.25;;
5762;SDS011;2906;53.282;9.508;2023-04-04T05:07:24;9.40;;;2.42;;
5762;SDS011;2906;53.282;9.508;2023-04-04T05:08:26;15.63;;;2.03;;
5762;SDS011;2906;53.282;9.508;2023-04-04T05:09:27;10.32;;;2.67;;
5762;SDS011;2906;53.282;9.508;2023-04-04T05:10:30;11.55;;;3.65;;
5762;SDS011;2906;53.282;9.508;2023-04-04T05:11:31;7.50;;;1.95;;
5762;SDS011;2906;53.282;9.508;2023-04-04T05:12:34;11.57;;;2.45;;
5762;SDS011;2906;53.282;9.508;2023-04-04T05:13:36;12.93;;;2.28;;
5762;SDS011;2906;53.282;9.508;2023-04-04T05:14:39;8.95;;;2.30;;
5762;SDS011;2906;53.282;9.508;2023-04-04T05:15:40;11.80;;;1.98;;
5762;SDS011;2906;53.282;9.508;2023-04-04T05:16:44;8.05;;;2.30;;
5762;SDS011;2906;53.282;9.508;2023-04-04T05:17:47;12.05;;;2.60;;
5762;SDS011;2906;53.282;9.508;2023-04-04T05:18:49;8.80;;;2.50;;
5762;SDS011;2906;53.282;9.508;2023-04-04T05:19:53;9.93;;;1.90;;
5762;SDS011;2906;53.282;9.508;2023-04-04T05:20:55;12.60;;;2.55;;
5762;SDS011;2906;53.282;9.508;2023-04-04T05:21:57;11.02;;;2.67;;
5762;SDS011;2906;53.282;9.508;2023-04-04T05:22:59;8.85;;;2.40;;
5762;SDS011;2906;53.282;9.508;2023-04-04T05:24:03;9.95;;;2.58;;
5762;SDS011;2906;53.282;9.508;2023-04-04T05:25:05;7.90;;;2.13;;
5762;SDS011;2906;53.282;9.508;2023-04-04T05:26:08;13.07;;;2.17;;
5762;SDS011;2906;53.282;9.508;2023-04-04T05:27:11;10.18;;;2.33;;
5762;SDS011;2906;53.282;9.508;2023-04-04T05:28:13;10.30;;;2.10;;
5762;SDS011;2906;53.282;9.508;2023-04-04T05:29:17;10.52;;;2.10;;
5762;SDS011;2906;53.282;9.508;2023-04-04T05:30:18;8.43;;;2.20;;
5762;SDS011;2906;53.282;9.508;2023-04-04T05:31:21;8.27;;;1.95;;
5762;SDS011;2906;53.282;9.508;2023-04-04T05:32:22;12.35;;;2.10;;
5762;SDS011;2906;53.282;9.508;2023-04-04T05:33:24;8.32;;;2.70;;
5762;SDS011;2906;53.282;9.508;2023-04-04T05:34:26;7.20;;;1.90;;
5762;SDS011;2906;53.282;9.508;2023-04-04T05:35:29;7.18;;;1.80;;
5762;SDS011;2906;53.282;9.508;2023-04-04T05:36:31;7.07;;;1.90;;
5762;SDS011;2906;53.282;9.508;2023-04-04T05:37:33;11.18;;;1.70;;
5762;SDS011;2906;53.282;9.508;2023-04-04T05:38:38;7.13;;;2.05;;
5762;SDS011;2906;53.282;9.508;2023-04-04T05:39:40;7.68;;;1.98;;
5762;SDS011;2906;53.282;9.508;2023-04-04T05:40:41;9.85;;;1.60;;
5762;SDS011;2906;53.282;9.508;2023-04-04T05:41:44;6.85;;;1.50;;
5762;SDS011;2906;53.282;9.508;2023-04-04T05:42:52;8.63;;;2.20;;
5762;SDS011;2906;53.282;9.508;2023-04-04T05:43:54;6.60;;;1.70;;
5762;SDS011;2906;53.282;9.508;2023-04-04T05:44:55;14.23;;;1.85;;
5762;SDS011;2906;53.282;9.508;2023-04-04T05:45:58;9.30;;;2.13;;
5762;SDS011;2906;53.282;9.508;2023-04-04T05:46:59;8.13;;;1.80;;
5762;SDS011;2906;53.282;9.508;2023-04-04T05:48:02;12.35;;;2.10;;
5762;SDS011;2906;53.282;9.508;2023-04-04T05:49:03;13.77;;;2.92;;
5762;SDS011;2906;53.282;9.508;2023-04-04T05:50:06;13.45;;;2.70;;
5762;SDS011;2906;53.282;9.508;2023-04-04T05:51:08;8.35;;;1.90;;
5762;SDS011;2906;53.282;9.508;2023-04-04T05:52:11;14.63;;;2.20;;
5762;SDS011;2906;53.282;9.508;2023-04-04T05:53:12;8.18;;;1.92;;
5762;SDS011;2906;53.282;9.508;2023-04-04T05:54:15;9.02;;;1.90;;
5762;SDS011;2906;53.282;9.508;2023-04-04T05:55:16;7.13;;;1.50;;
5762;SDS011;2906;53.282;9.508;2023-04-04T05:56:19;8.52;;;1.80;;
5762;SDS011;2906;53.282;9.508;2023-04-04T05:57:21;9.23;;;1.90;;
5762;SDS011;2906;53.282;9.508;2023-04-04T05:58:22;9.75;;;1.80;;
5762;SDS011;2906;53.282;9.508;2023-04-04T05:59:25;9.75;;;2.00;;
5762;SDS011;2906;53.282;9.508;2023-04-04T06:00:27;12.95;;;2.13;;
5762;SDS011;2906;53.282;9.508;2023-04-04T06:01:30;20.30;;;2.55;;
5762;SDS011;2906;53.282;9.508;2023-04-04T06:02:32;10.45;;;2.15;;
5762;SDS011;2906;53.282;9.508;2023-04-04T06:03:33;11.52;;;2.00;;
5762;SDS011;2906;53.282;9.508;2023-04-04T06:04:35;8.27;;;1.70;;
5762;SDS011;2906;53.282;9.508;2023-04-04T06:05:41;8.13;;;1.65;;
5762;SDS011;2906;53.282;9.508;2023-04-04T06:06:45;10.23;;;1.88;;
5762;SDS011;2906;53.282;9.508;2023-04-04T06:07:46;9.02;;;1.73;;
5762;SDS011;2906;53.282;9.508;2023-04-04T06:08:49;13.00;;;1.80;;
5762;SDS011;2906;53.282;9.508;2023-04-04T06:09:50;11.48;;;1.70;;
5762;SDS011;2906;53.282;9.508;2023-04-04T06:10:52;10.40;;;1.80;;
5762;SDS011;2906;53.282;9.508;2023-04-04T06:11:55;7.88;;;1.40;;
5762;SDS011;2906;53.282;9.508;2023-04-04T06:12:57;7.50;;;1.70;;
5762;SDS011;2906;53.282;9.508;2023-04-04T06:13:59;10.02;;;2.10;;
5762;SDS011;2906;53.282;9.508;2023-04-04T06:15:00;7.25;;;1.67;;
5762;SDS011;2906;53.282;9.508;2023-04-04T06:16:03;9.98;;;2.00;;
5762;SDS011;2906;53.282;9.508;2023-04-04T06:17:05;8.63;;;1.92;;
5762;SDS011;2906;53.282;9.508;2023-04-04T06:18:07;9.52;;;1.83;;
5762;SDS011;2906;53.282;9.508;2023-04-04T06:19:08;8.40;;;1.88;;
5762;SDS011;2906;53.282;9.508;2023-04-04T06:20:10;11.05;;;2.25;;
5762;SDS011;2906;53.282;9.508;2023-04-04T06:21:13;9.05;;;1.60;;
5762;SDS011;2906;53.282;9.508;2023-04-04T06:22:15;6.78;;;1.60;;
5762;SDS011;2906;53.282;9.508;2023-04-04T06:23:17;9.75;;;1.90;;
5762;SDS011;2906;53.282;9.508;2023-04-04T06:24:20;7.13;;;1.60;;
5762;SDS011;2906;53.282;9.508;2023-04-04T06:25:21;8.20;;;1.88;;